Terminal Aerodrome Forecast
Issued by NWS

Home | Current Version | Previous Version | Text Only | Print | Product List | Glossary On
Versions: 1 2 3 4 5 6 7 8 9 10 11 12 13 14 15 16 17 18 19 20 21 22 23 24 25 26
000
FTUS41 KGYX 022322
TAFLEB
TAF
KLEB 022322Z 0300/0324 VRB03KT P6SM SCT100
      TEMPO 0308/0312 1SM BR BKN001
     FM031200 19007KT P6SM BKN250
     FM031700 20013KT P6SM VCTS SCT060CB BKN200=

USA.gov is the U.S. government's official web portal to all federal, state and local government web resources and services.